createdAt,value
2023-01-17T00:02:57.883Z,98476.91
2023-01-17T00:06:19.541Z,98473.78
2023-01-17T00:09:40.752Z,98467.09
2023-01-17T00:12:48.743Z,98455.81
2023-01-17T00:15:52.369Z,98468.25
2023-01-17T00:19:13.364Z,98462.97
2023-01-17T00:22:47.131Z,98458.47
2023-01-17T00:26:04.775Z,98457.81
2023-01-17T00:29:07.300Z,98458.91
2023-01-17T00:32:09.939Z,98446.22
2023-01-17T00:35:12.613Z,98446.53
2023-01-17T00:38:17.604Z,98441.31
2023-01-17T00:41:20.118Z,98434.31
2023-01-17T00:44:41.135Z,98441.47
2023-01-17T00:48:06.000Z,98432.47
2023-01-17T00:51:27.355Z,98437.53
2023-01-17T00:54:48.620Z,98426.72
2023-01-17T00:58:09.721Z,98434.63
2023-01-17T01:01:31.245Z,98432.00
2023-01-17T01:04:52.800Z,98437.38
2023-01-17T01:08:14.423Z,98452.28
2023-01-17T01:11:39.197Z,98442.19
2023-01-17T01:15:00.305Z,98423.59
2023-01-17T01:18:30.469Z,98425.00
2023-01-17T01:21:52.381Z,98422.34
2023-01-17T01:25:13.821Z,98415.25
2023-01-17T01:28:34.763Z,98402.38
2023-01-17T01:31:56.818Z,98409.53
2023-01-17T01:34:59.406Z,98395.25
2023-01-17T01:38:03.318Z,98396.81
2023-01-17T01:41:06.802Z,98403.31
2023-01-17T01:44:43.647Z,98397.91
2023-01-17T01:47:47.476Z,98391.69
2023-01-17T01:50:51.132Z,98367.19
2023-01-17T01:54:01.280Z,98363.06
2023-01-17T01:57:07.735Z,98377.31
2023-01-17T02:00:18.116Z,98378.72
2023-01-17T02:03:29.556Z,98377.03
2023-01-17T02:06:39.042Z,98385.75
2023-01-17T02:09:42.032Z,98383.41
2023-01-17T02:12:45.949Z,98376.28
2023-01-17T02:16:13.807Z,98378.00
2023-01-17T02:19:45.335Z,98380.16
2023-01-17T02:23:11.882Z,98377.22
2023-01-17T02:26:42.542Z,98369.97
2023-01-17T02:30:09.380Z,98364.41
2023-01-17T02:33:39.261Z,98375.72
2023-01-17T02:36:52.786Z,98373.38
2023-01-17T02:40:02.863Z,98364.09
2023-01-17T02:43:11.844Z,98357.44
2023-01-17T02:46:14.500Z,98361.59
2023-01-17T02:49:19.523Z,98354.63
2023-01-17T02:52:51.947Z,98363.63
2023-01-17T02:56:06.116Z,98342.66
2023-01-17T02:59:08.976Z,98341.41
2023-01-17T03:02:53.066Z,98351.50
2023-01-17T03:06:02.580Z,98347.81
2023-01-17T03:09:06.308Z,98353.97
2023-01-17T03:12:09.864Z,98351.81
2023-01-17T03:15:14.167Z,98347.31
2023-01-17T03:18:17.420Z,98349.16
2023-01-17T03:21:21.112Z,98363.13
2023-01-17T03:24:24.051Z,98357.84
2023-01-17T03:27:26.546Z,98343.41
2023-01-17T03:30:29.748Z,98339.69
2023-01-17T03:33:32.309Z,98336.41
2023-01-17T03:36:35.114Z,98342.97
2023-01-17T03:39:37.789Z,98350.88
2023-01-17T03:42:40.543Z,98339.44
2023-01-17T03:45:43.384Z,98347.63
2023-01-17T03:48:46.424Z,98349.53
2023-01-17T03:51:49.714Z,98345.31
2023-01-17T03:54:52.346Z,98337.41
2023-01-17T03:57:54.714Z,98333.84
2023-01-17T04:00:57.821Z,98331.06
2023-01-17T04:04:01.011Z,98327.84
2023-01-17T04:07:03.945Z,98316.94
2023-01-17T04:10:07.167Z,98309.56
2023-01-17T04:13:09.917Z,98297.59
2023-01-17T04:16:15.691Z,98286.59
2023-01-17T04:19:18.992Z,98278.38
2023-01-17T04:22:21.593Z,98286.25
2023-01-17T04:25:25.914Z,98285.84
2023-01-17T04:28:28.299Z,98298.41
2023-01-17T04:31:31.401Z,98298.25
2023-01-17T04:34:33.955Z,98294.69
2023-01-17T04:37:37.244Z,98284.78
2023-01-17T04:40:39.816Z,98287.56
2023-01-17T04:43:42.452Z,98274.53
2023-01-17T04:46:45.089Z,98267.88
2023-01-17T04:49:48.018Z,98267.09
2023-01-17T04:52:50.539Z,98279.19
2023-01-17T04:55:53.730Z,98281.06
2023-01-17T04:58:59.184Z,98269.44
2023-01-17T05:02:01.983Z,98261.06
2023-01-17T05:05:04.957Z,98259.84
2023-01-17T05:08:07.926Z,98265.50
2023-01-17T05:11:10.699Z,98260.91
2023-01-17T05:14:13.658Z,98258.28
2023-01-17T05:17:16.391Z,98257.66
2023-01-17T05:20:20.070Z,98241.09
2023-01-17T05:23:22.933Z,98232.13
2023-01-17T05:26:25.675Z,98220.19
2023-01-17T05:29:28.881Z,98206.09
2023-01-17T05:32:31.914Z,98198.97
2023-01-17T05:35:34.286Z,98215.69
2023-01-17T05:38:37.088Z,98229.59
2023-01-17T05:41:39.848Z,98234.56
2023-01-17T05:44:42.786Z,98231.28
2023-01-17T05:47:52.868Z,98238.53
2023-01-17T05:50:55.584Z,98239.44
2023-01-17T05:53:58.062Z,98237.56
2023-01-17T05:57:00.966Z,98245.91
2023-01-17T06:00:03.971Z,98237.66
2023-01-17T06:03:07.409Z,98233.47
2023-01-17T06:06:09.812Z,98217.66
2023-01-17T06:09:12.614Z,98219.06
2023-01-17T06:12:15.644Z,98213.03
2023-01-17T06:15:18.861Z,98237.19
2023-01-17T06:18:21.194Z,98229.75
2023-01-17T06:21:23.924Z,98223.06
2023-01-17T06:24:27.271Z,98219.06
2023-01-17T06:27:29.963Z,98230.69
2023-01-17T06:30:32.737Z,98252.09
2023-01-17T06:33:35.563Z,98254.56
2023-01-17T06:36:38.016Z,98255.34
2023-01-17T06:39:40.677Z,98247.13
2023-01-17T06:42:43.716Z,98247.56
2023-01-17T06:45:46.321Z,98245.88
2023-01-17T06:48:49.894Z,98249.28
2023-01-17T06:51:52.517Z,98242.16
2023-01-17T06:54:54.916Z,98231.75
2023-01-17T06:57:59.572Z,98233.63
2023-01-17T07:01:10.556Z,98234.84
2023-01-17T07:04:14.457Z,98238.81
2023-01-17T07:07:19.462Z,98245.63
2023-01-17T07:10:24.106Z,98253.84
2023-01-17T07:13:28.818Z,98263.28
2023-01-17T07:16:31.934Z,98266.69
2023-01-17T07:19:34.461Z,98265.09
2023-01-17T07:22:37.838Z,98264.44
2023-01-17T07:25:40.547Z,98260.53
2023-01-17T07:28:43.214Z,98272.13
2023-01-17T07:31:45.770Z,98269.94
2023-01-17T07:34:48.435Z,98273.97
2023-01-17T07:37:51.592Z,98283.72
2023-01-17T07:40:58.919Z,98287.31
2023-01-17T07:44:01.964Z,98295.94
2023-01-17T07:47:04.665Z,98301.16
2023-01-17T07:50:09.177Z,98299.59
2023-01-17T07:53:11.983Z,98309.69
2023-01-17T07:56:14.502Z,98307.34
2023-01-17T07:59:18.623Z,98309.78
2023-01-17T08:02:24.410Z,98306.63
2023-01-17T08:05:30.888Z,98306.69
2023-01-17T08:08:33.920Z,98311.50
2023-01-17T08:11:36.552Z,98319.56
2023-01-17T08:14:39.064Z,98322.31
2023-01-17T08:17:54.537Z,98325.28
2023-01-17T08:20:56.995Z,98319.16
2023-01-17T08:23:59.423Z,98326.78
2023-01-17T08:27:01.865Z,98340.22
2023-01-17T08:30:05.865Z,98333.72
2023-01-17T08:33:08.414Z,98330.88
2023-01-17T08:36:11.018Z,98345.16
2023-01-17T08:39:14.689Z,98347.63
2023-01-17T08:42:17.229Z,98354.63
2023-01-17T08:45:19.856Z,98369.38
2023-01-17T08:48:23.662Z,98369.69
2023-01-17T08:51:28.953Z,98373.88
2023-01-17T08:54:35.660Z,98376.41
2023-01-17T08:57:38.420Z,98374.53
2023-01-17T09:00:41.327Z,98367.72
2023-01-17T09:03:45.765Z,98365.97
2023-01-17T09:06:48.872Z,98369.38
2023-01-17T09:09:52.851Z,98380.06
2023-01-17T09:12:55.697Z,98380.97
2023-01-17T09:15:59.373Z,98395.09
2023-01-17T09:19:02.002Z,98377.13
2023-01-17T09:22:05.609Z,98386.13
2023-01-17T09:25:08.816Z,98363.00
2023-01-17T09:28:11.543Z,98370.28
2023-01-17T09:31:16.589Z,98374.78
2023-01-17T09:34:20.014Z,98381.50
2023-01-17T09:37:22.642Z,98387.88
2023-01-17T09:40:25.745Z,98389.09
2023-01-17T09:43:47.505Z,98380.03
2023-01-17T09:46:54.531Z,98369.50
2023-01-17T09:50:27.233Z,98366.84
2023-01-17T09:53:34.238Z,98368.63
2023-01-17T09:56:43.828Z,98367.66
2023-01-17T10:00:16.360Z,98373.06
2023-01-17T10:03:30.976Z,98370.56
2023-01-17T10:07:11.928Z,98383.59
2023-01-17T10:10:26.755Z,98373.22
2023-01-17T10:13:54.243Z,98373.50
2023-01-17T10:17:00.037Z,98378.78
2023-01-17T10:20:30.770Z,98371.63
2023-01-17T10:24:03.838Z,98372.84
2023-01-17T10:27:25.085Z,98377.00
2023-01-17T10:30:51.940Z,98387.81
2023-01-17T10:33:55.652Z,98382.88
2023-01-17T10:37:23.048Z,98394.22
2023-01-17T10:40:55.091Z,98397.09
2023-01-17T10:44:45.672Z,98392.28
2023-01-17T10:47:59.608Z,98410.16
2023-01-17T10:51:11.428Z,98411.47
2023-01-17T10:54:43.250Z,98413.03
2023-01-17T10:57:48.878Z,98420.22
2023-01-17T11:00:59.447Z,98416.78
2023-01-17T11:04:02.576Z,98430.50
2023-01-17T11:07:16.336Z,98425.41
2023-01-17T11:10:41.854Z,98422.88
2023-01-17T11:13:47.869Z,98410.72
2023-01-17T11:17:04.758Z,98410.28
2023-01-17T11:20:43.154Z,98413.72
2023-01-17T11:23:49.049Z,98412.34
2023-01-17T11:26:51.705Z,98409.28
2023-01-17T11:30:20.373Z,98406.53
2023-01-17T11:33:48.314Z,98396.03
2023-01-17T11:37:17.275Z,98404.00
2023-01-17T11:40:23.968Z,98397.72
2023-01-17T11:43:27.675Z,98412.94
2023-01-17T11:46:30.468Z,98410.03
2023-01-17T11:49:32.992Z,98410.03
2023-01-17T11:52:39.307Z,98409.72
2023-01-17T11:56:12.415Z,98413.97
2023-01-17T11:59:21.266Z,98412.56
2023-01-17T12:02:48.309Z,98411.69
2023-01-17T12:06:01.852Z,98395.84
2023-01-17T12:09:34.937Z,98388.47
2023-01-17T12:13:11.267Z,98382.19
2023-01-17T12:16:30.005Z,98393.38
2023-01-17T12:19:51.352Z,98391.00
2023-01-17T12:23:16.240Z,98406.03
2023-01-17T12:26:28.822Z,98396.88
2023-01-17T12:29:49.951Z,98399.59
2023-01-17T12:33:10.736Z,98394.41
2023-01-17T12:36:22.525Z,98401.13
2023-01-17T12:39:35.725Z,98404.88
2023-01-17T12:42:43.252Z,98404.69
2023-01-17T12:45:49.472Z,98404.59
2023-01-17T12:48:58.407Z,98416.13
2023-01-17T12:52:48.811Z,98424.88
2023-01-17T12:56:17.335Z,98420.78
2023-01-17T12:59:39.287Z,98433.97
2023-01-17T13:02:54.708Z,98435.91
2023-01-17T13:05:58.587Z,98432.75
2023-01-17T13:09:03.890Z,98440.31
2023-01-17T13:12:12.643Z,98449.47
2023-01-17T13:15:27.254Z,98451.84
2023-01-17T13:18:30.056Z,98454.75
2023-01-17T13:21:34.634Z,98447.72
2023-01-17T13:25:23.346Z,98456.41
2023-01-17T13:28:35.503Z,98469.28
2023-01-17T13:31:50.837Z,98473.34
2023-01-17T13:35:01.753Z,98478.03
2023-01-17T13:38:23.123Z,98470.66
2023-01-17T13:41:34.625Z,98471.25
2023-01-17T13:44:37.579Z,98469.66
2023-01-17T13:47:41.557Z,98479.34
2023-01-17T13:50:58.456Z,98487.22
2023-01-17T13:54:01.130Z,98486.59
2023-01-17T13:57:30.428Z,98488.03
2023-01-17T14:00:36.103Z,98492.09
2023-01-17T14:03:46.266Z,98484.59
2023-01-17T14:06:53.085Z,98497.16
2023-01-17T14:09:55.569Z,98491.75
2023-01-17T14:12:59.100Z,98504.22
2023-01-17T14:16:05.446Z,98509.38
2023-01-17T14:19:26.118Z,98509.19
2023-01-17T14:22:32.044Z,98505.94
2023-01-17T14:25:40.582Z,98504.19
2023-01-17T14:28:43.053Z,98511.19
2023-01-17T14:31:45.980Z,98521.19
2023-01-17T14:34:57.257Z,98527.16
2023-01-17T14:38:05.404Z,98529.59
2023-01-17T14:41:13.361Z,98517.78
2023-01-17T14:44:16.907Z,98524.91
2023-01-17T14:47:20.223Z,98530.19
2023-01-17T14:50:26.736Z,98520.88
2023-01-17T14:53:31.560Z,98522.25
2023-01-17T14:56:34.209Z,98523.75
2023-01-17T14:59:36.787Z,98516.91
2023-01-17T15:02:43.996Z,98514.09
2023-01-17T15:05:51.437Z,98508.81
2023-01-17T15:08:54.600Z,98500.91
2023-01-17T15:11:58.183Z,98503.69
2023-01-17T15:15:01.701Z,98494.16
2023-01-17T15:18:14.792Z,98479.19
2023-01-17T15:21:21.141Z,98463.91
2023-01-17T15:24:27.710Z,98456.25
2023-01-17T15:27:30.560Z,98452.44
2023-01-17T15:30:33.183Z,98440.38
2023-01-17T15:33:38.936Z,98438.34
2023-01-17T15:36:41.558Z,98430.22
2023-01-17T15:39:44.144Z,98431.16
2023-01-17T15:42:51.214Z,98427.28
2023-01-17T15:45:58.514Z,98427.50
2023-01-17T15:49:31.227Z,98435.69
2023-01-17T15:52:33.806Z,98432.97
2023-01-17T15:55:40.159Z,98448.03
2023-01-17T15:58:42.684Z,98444.97
2023-01-17T16:01:55.726Z,98446.38
2023-01-17T16:04:59.915Z,98447.94
2023-01-17T16:08:06.297Z,98451.31
2023-01-17T16:11:11.775Z,98449.00
2023-01-17T16:14:14.309Z,98446.94
2023-01-17T16:17:17.881Z,98445.53
2023-01-17T16:20:23.356Z,98444.16
2023-01-17T16:23:26.583Z,98443.72
2023-01-17T16:26:29.534Z,98436.22
2023-01-17T16:29:32.021Z,98426.13
2023-01-17T16:32:34.858Z,98427.44
2023-01-17T16:35:37.716Z,98423.88
2023-01-17T16:38:40.549Z,98422.09
2023-01-17T16:41:43.350Z,98425.91
2023-01-17T16:44:46.159Z,98429.81
2023-01-17T16:51:10.564Z,98426.09
2023-01-17T16:54:13.044Z,98407.81
2023-01-17T16:57:16.003Z,98401.91
2023-01-17T17:00:18.930Z,98398.97
2023-01-17T17:03:21.846Z,98401.31
2023-01-17T17:06:24.489Z,98392.47
2023-01-17T17:09:26.980Z,98399.28
2023-01-17T17:12:29.800Z,98391.63
2023-01-17T17:15:32.432Z,98399.69
2023-01-17T17:18:36.761Z,98400.16
2023-01-17T17:21:39.925Z,98388.22
2023-01-17T17:24:42.348Z,98391.47
2023-01-17T17:27:45.260Z,98386.56
2023-01-17T17:30:47.794Z,98387.59
2023-01-17T17:33:50.660Z,98373.81
2023-01-17T17:36:53.422Z,98369.19
2023-01-17T17:39:57.869Z,98361.75
2023-01-17T17:43:00.636Z,98347.53
2023-01-17T17:46:03.267Z,98357.72
2023-01-17T17:49:06.841Z,98354.00
2023-01-17T17:52:10.333Z,98350.09
2023-01-17T17:55:13.239Z,98338.75
2023-01-17T17:58:16.038Z,98340.19
2023-01-17T18:01:19.306Z,98333.53
2023-01-17T18:04:22.371Z,98320.81
2023-01-17T18:07:25.232Z,98319.91
2023-01-17T18:10:28.012Z,98318.97
2023-01-17T18:13:32.828Z,98317.56
2023-01-17T18:16:39.445Z,98319.13
2023-01-17T18:19:42.627Z,98318.53
2023-01-17T18:22:45.772Z,98301.78
2023-01-17T18:25:48.501Z,98305.47
2023-01-17T18:28:56.820Z,98303.00
2023-01-17T18:31:59.390Z,98297.59
2023-01-17T18:35:04.117Z,98292.63
2023-01-17T18:38:06.714Z,98292.06
2023-01-17T18:41:15.797Z,98279.38
2023-01-17T18:44:22.300Z,98268.69
2023-01-17T18:47:25.513Z,98250.88
2023-01-17T18:50:28.657Z,98253.16
2023-01-17T18:53:33.489Z,98234.88
2023-01-17T18:56:36.370Z,98220.91
2023-01-17T18:59:39.868Z,98221.84
2023-01-17T19:02:42.853Z,98223.41
2023-01-17T19:05:47.050Z,98197.50
2023-01-17T19:08:51.826Z,98190.94
2023-01-17T19:11:54.725Z,98185.66
2023-01-17T19:14:57.750Z,98171.25
2023-01-17T19:18:00.603Z,98165.66
2023-01-17T19:21:12.740Z,98155.25
2023-01-17T19:24:15.781Z,98146.41
2023-01-17T19:27:18.867Z,98128.28
2023-01-17T19:30:22.526Z,98125.63
2023-01-17T19:33:25.268Z,98117.41
2023-01-17T19:36:33.965Z,98102.38
2023-01-17T19:39:36.977Z,98108.22
2023-01-17T19:42:40.770Z,98097.22
2023-01-17T19:45:43.289Z,98095.59
2023-01-17T19:48:46.252Z,98084.59
2023-01-17T19:51:50.173Z,98077.91
2023-01-17T19:54:53.083Z,98071.34
2023-01-17T19:57:56.182Z,98057.28
2023-01-17T20:01:17.013Z,98041.91
2023-01-17T20:04:19.793Z,98021.59
2023-01-17T20:07:23.064Z,98013.81
2023-01-17T20:10:26.236Z,98000.41
2023-01-17T20:13:29.393Z,97994.94
2023-01-17T20:16:34.953Z,98000.53
2023-01-17T20:19:37.497Z,97999.22
2023-01-17T20:22:44.341Z,97998.88
2023-01-17T20:25:59.143Z,97994.16
2023-01-17T20:29:04.678Z,98000.09
2023-01-17T20:32:08.192Z,97987.81
2023-01-17T20:35:10.851Z,97983.09
2023-01-17T20:38:21.800Z,97962.06
2023-01-17T20:41:28.840Z,97973.63
2023-01-17T20:44:32.823Z,97944.03
2023-01-17T20:47:35.513Z,97922.38
2023-01-17T20:50:38.330Z,97898.84
2023-01-17T20:53:42.394Z,97882.69
2023-01-17T20:56:47.560Z,97869.59
2023-01-17T20:59:50.115Z,97859.16
2023-01-17T21:02:53.483Z,97838.00
2023-01-17T21:06:07.734Z,97824.47
2023-01-17T21:09:15.315Z,97798.84
2023-01-17T21:12:17.993Z,97795.53
2023-01-17T21:15:20.736Z,97798.25
2023-01-17T21:18:26.648Z,97806.59
2023-01-17T21:21:29.563Z,97821.00
2023-01-17T21:24:32.199Z,97811.66
2023-01-17T21:27:35.636Z,97821.22
2023-01-17T21:30:38.119Z,97841.75
2023-01-17T21:33:40.765Z,97809.16
2023-01-17T21:36:43.454Z,97797.75
2023-01-17T21:39:51.559Z,97786.00
2023-01-17T21:42:54.128Z,97747.94
2023-01-17T21:45:57.072Z,97778.16
2023-01-17T21:49:00.313Z,97750.38
2023-01-17T21:52:03.158Z,97791.44
2023-01-17T21:55:24.611Z,97793.00
2023-01-17T21:58:45.799Z,97771.31
2023-01-17T22:01:49.115Z,97749.19
2023-01-17T22:04:51.739Z,97746.53
2023-01-17T22:08:12.333Z,97727.97
2023-01-17T22:11:17.343Z,97729.84
2023-01-17T22:14:20.926Z,97728.81
2023-01-17T22:17:23.544Z,97734.19
2023-01-17T22:20:26.125Z,97734.09
2023-01-17T22:23:28.635Z,97721.41
2023-01-17T22:26:31.864Z,97707.19
2023-01-17T22:29:36.546Z,97692.78
2023-01-17T22:32:39.736Z,97683.56
2023-01-17T22:35:42.703Z,97697.56
2023-01-17T22:38:45.397Z,97691.25
2023-01-17T22:41:48.414Z,97679.63
2023-01-17T22:44:51.172Z,97682.56
2023-01-17T22:47:53.932Z,97703.25
2023-01-17T22:50:58.389Z,97690.16
2023-01-17T22:54:01.574Z,97697.88
2023-01-17T22:57:04.164Z,97674.00
2023-01-17T23:00:14.692Z,97672.31
2023-01-17T23:03:17.405Z,97677.00
2023-01-17T23:06:28.429Z,97676.03
2023-01-17T23:09:30.897Z,97675.06
2023-01-17T23:12:34.130Z,97650.63
2023-01-17T23:15:58.273Z,97648.66
2023-01-17T23:19:19.212Z,97647.63
2023-01-17T23:22:24.207Z,97640.72
2023-01-17T23:25:26.900Z,97648.34
2023-01-17T23:28:29.599Z,97648.66
2023-01-17T23:31:32.609Z,97654.28
2023-01-17T23:34:35.062Z,97644.03
2023-01-17T23:37:56.696Z,97639.09
2023-01-17T23:41:19.833Z,97630.84
2023-01-17T23:44:23.972Z,97635.50
2023-01-17T23:47:26.734Z,97637.06
2023-01-17T23:50:29.366Z,97637.91
2023-01-17T23:53:31.993Z,97644.38
2023-01-17T23:56:34.689Z,97645.66
2023-01-17T23:59:37.442Z,97647.88
